createdAt,value
2022-12-09T00:00:32.574Z,-7.222222222222172
2022-12-09T00:01:32.537Z,-7.222222222222172
2022-12-09T00:02:33.048Z,-7.222222222222172
2022-12-09T00:03:32.968Z,-7.222222222222172
2022-12-09T00:04:33.033Z,-7.222222222222172
2022-12-09T00:05:32.851Z,-7.222222222222172
2022-12-09T00:06:32.577Z,-7.222222222222172
2022-12-09T00:07:32.564Z,-7.222222222222172
2022-12-09T00:08:32.613Z,-7.222222222222172
2022-12-09T00:09:32.580Z,-7.111111111111086
2022-12-09T00:10:32.564Z,-7.111111111111086
2022-12-09T00:11:32.626Z,-7.111111111111086
2022-12-09T00:12:32.738Z,-7.111111111111086
2022-12-09T00:13:32.580Z,-7.111111111111086
2022-12-09T00:14:32.793Z,-7.111111111111086
2022-12-09T00:15:32.655Z,-7.111111111111086
2022-12-09T00:16:32.716Z,-7.111111111111086
2022-12-09T00:17:32.633Z,-7.111111111111086
2022-12-09T00:18:32.544Z,-7.111111111111086
2022-12-09T00:19:32.580Z,-7.111111111111086
2022-12-09T00:20:32.540Z,-7.111111111111086
2022-12-09T00:21:32.640Z,-7.111111111111086
2022-12-09T00:22:32.694Z,-7.222222222222172
2022-12-09T00:23:32.743Z,-7.222222222222172
2022-12-09T00:24:32.557Z,-7.222222222222172
2022-12-09T00:25:32.756Z,-7.222222222222172
2022-12-09T00:26:32.592Z,-7.222222222222172
2022-12-09T00:27:32.588Z,-7.222222222222172
2022-12-09T00:28:32.808Z,-7.222222222222172
2022-12-09T00:29:32.818Z,-7.222222222222172
2022-12-09T00:30:32.562Z,-7.222222222222172
2022-12-09T00:31:32.775Z,-7.222222222222172
2022-12-09T00:32:32.611Z,-7.2777777777777715
2022-12-09T00:33:32.577Z,-7.222222222222172
2022-12-09T00:34:32.580Z,-7.222222222222172
2022-12-09T00:35:32.526Z,-7.222222222222172
2022-12-09T00:36:32.919Z,-7.222222222222172
2022-12-09T00:37:32.835Z,-7.222222222222172
2022-12-09T00:38:32.606Z,-7.222222222222172
2022-12-09T00:39:32.768Z,-7.222222222222172
2022-12-09T00:40:32.539Z,-7.222222222222172
2022-12-09T00:41:32.595Z,-7.2777777777777715
2022-12-09T00:42:32.767Z,-7.2777777777777715
2022-12-09T00:43:32.569Z,-7.2777777777777715
2022-12-09T00:44:32.568Z,-7.2777777777777715
2022-12-09T00:45:32.708Z,-7.2777777777777715
2022-12-09T00:46:32.672Z,-7.2777777777777715
2022-12-09T00:47:32.855Z,-7.2777777777777715
2022-12-09T00:48:32.544Z,-7.2777777777777715
2022-12-09T00:49:32.655Z,-7.2777777777777715
2022-12-09T00:50:32.585Z,-7.2777777777777715
2022-12-09T00:51:32.585Z,-7.2777777777777715
2022-12-09T00:52:32.661Z,-7.222222222222172
2022-12-09T00:53:32.567Z,-7.222222222222172
2022-12-09T00:54:32.744Z,-7.222222222222172
2022-12-09T00:55:32.608Z,-7.222222222222172
2022-12-09T00:56:32.779Z,-7.222222222222172
2022-12-09T00:57:32.668Z,-7.222222222222172
2022-12-09T00:58:32.616Z,-7.222222222222172
2022-12-09T00:59:32.756Z,-7.222222222222172
2022-12-09T01:00:32.627Z,-7.222222222222172
2022-12-09T01:01:33.025Z,-7.222222222222172
2022-12-09T01:02:32.989Z,-7.111111111111086
2022-12-09T01:03:33.227Z,-7.111111111111086
2022-12-09T01:04:32.692Z,-7.222222222222172
2022-12-09T01:05:32.707Z,-7.111111111111086
2022-12-09T01:06:32.713Z,-7.111111111111086
2022-12-09T01:07:32.557Z,-7.111111111111086
2022-12-09T01:08:32.774Z,-7.111111111111086
2022-12-09T01:09:32.979Z,-7.111111111111086
2022-12-09T01:10:32.614Z,-7.111111111111086
2022-12-09T01:11:32.609Z,-7.111111111111086
2022-12-09T01:12:32.651Z,-7.111111111111086
2022-12-09T01:13:32.664Z,-7.111111111111086
2022-12-09T01:14:32.635Z,-7.111111111111086
2022-12-09T01:15:32.786Z,-7.222222222222172
2022-12-09T01:16:32.698Z,-7.222222222222172
2022-12-09T01:17:32.659Z,-7.222222222222172
2022-12-09T01:18:32.600Z,-7.222222222222172
2022-12-09T01:19:32.824Z,-7.111111111111086
2022-12-09T01:20:32.557Z,-7.111111111111086
2022-12-09T01:21:32.651Z,-7.111111111111086
2022-12-09T01:22:32.690Z,-7.111111111111086
2022-12-09T01:23:32.603Z,-7.222222222222172
2022-12-09T01:24:32.576Z,-7.222222222222172
2022-12-09T01:25:32.903Z,-7.222222222222172
2022-12-09T01:26:32.798Z,-7.222222222222172
2022-12-09T01:27:32.781Z,-7.222222222222172
2022-12-09T01:28:32.594Z,-7.222222222222172
2022-12-09T01:29:32.596Z,-7.111111111111086
2022-12-09T01:30:32.568Z,-7.111111111111086
2022-12-09T01:31:32.599Z,-7.111111111111086
2022-12-09T01:32:32.605Z,-7.111111111111086
2022-12-09T01:33:32.765Z,-7.111111111111086
2022-12-09T01:34:32.582Z,-7.111111111111086
2022-12-09T01:35:32.557Z,-7.111111111111086
2022-12-09T01:36:32.633Z,-7.111111111111086
2022-12-09T01:37:32.629Z,-7.111111111111086
2022-12-09T01:38:32.568Z,-7.111111111111086
2022-12-09T01:39:32.607Z,-7.111111111111086
2022-12-09T01:40:32.753Z,-6.999999999999943
2022-12-09T01:41:32.699Z,-6.999999999999943
2022-12-09T01:42:32.965Z,-6.999999999999943
2022-12-09T01:43:33.000Z,-6.999999999999943
2022-12-09T01:44:32.703Z,-6.999999999999943
2022-12-09T01:45:32.799Z,-6.999999999999943
2022-12-09T01:46:32.784Z,-6.999999999999943
2022-12-09T01:47:32.939Z,-6.999999999999943
2022-12-09T01:48:32.858Z,-6.999999999999943
2022-12-09T01:49:32.944Z,-6.888888888888857
2022-12-09T01:50:32.591Z,-6.888888888888857
2022-12-09T01:51:32.848Z,-6.999999999999943
2022-12-09T01:52:32.710Z,-6.999999999999943
2022-12-09T01:53:32.830Z,-6.999999999999943
2022-12-09T01:54:32.599Z,-6.888888888888857
2022-12-09T01:55:32.838Z,-6.999999999999943
2022-12-09T01:56:32.791Z,-6.888888888888857
2022-12-09T01:57:32.849Z,-6.888888888888857
2022-12-09T01:58:32.670Z,-6.888888888888857
2022-12-09T01:59:32.846Z,-6.888888888888857
2022-12-09T02:00:32.557Z,-6.888888888888857
2022-12-09T02:01:32.769Z,-6.888888888888857
2022-12-09T02:02:32.948Z,-6.888888888888857
2022-12-09T02:03:33.008Z,-6.888888888888857
2022-12-09T02:04:32.873Z,-6.888888888888857
2022-12-09T02:05:32.830Z,-6.888888888888857
2022-12-09T02:06:32.750Z,-6.888888888888857
2022-12-09T02:07:32.737Z,-6.777777777777715
2022-12-09T02:08:32.625Z,-6.777777777777715
2022-12-09T02:09:32.803Z,-6.777777777777715
2022-12-09T02:10:32.630Z,-6.777777777777715
2022-12-09T02:11:32.599Z,-6.777777777777715
2022-12-09T02:12:32.565Z,-6.777777777777715
2022-12-09T02:13:32.557Z,-6.777777777777715
2022-12-09T02:14:32.640Z,-6.722222222222172
2022-12-09T02:15:32.757Z,-6.722222222222172
2022-12-09T02:16:32.619Z,-6.722222222222172
2022-12-09T02:17:32.925Z,-6.722222222222172
2022-12-09T02:18:32.867Z,-6.611111111111029
2022-12-09T02:19:32.756Z,-6.611111111111029
2022-12-09T02:20:32.527Z,-6.611111111111029
2022-12-09T02:21:32.929Z,-6.611111111111029
2022-12-09T02:22:32.989Z,-6.499999999999943
2022-12-09T02:23:32.560Z,-6.499999999999943
2022-12-09T02:24:32.746Z,-6.499999999999943
2022-12-09T02:25:32.704Z,-6.499999999999943
2022-12-09T02:26:32.725Z,-6.499999999999943
2022-12-09T02:27:32.580Z,-6.388888888888857
2022-12-09T02:28:32.515Z,-6.388888888888857
2022-12-09T02:29:32.570Z,-6.388888888888857
2022-12-09T02:30:32.804Z,-6.388888888888857
2022-12-09T02:31:33.043Z,-6.388888888888857
2022-12-09T02:32:32.823Z,-6.388888888888857
2022-12-09T02:33:32.779Z,-6.277777777777715
2022-12-09T02:34:32.561Z,-6.277777777777715
2022-12-09T02:35:32.565Z,-6.277777777777715
2022-12-09T02:36:32.635Z,-6.277777777777715
2022-12-09T02:37:32.843Z,-6.277777777777715
2022-12-09T02:38:32.602Z,-6.277777777777715
2022-12-09T02:39:32.550Z,-6.222222222222172
2022-12-09T02:40:32.560Z,-6.222222222222172
2022-12-09T02:41:32.635Z,-6.222222222222172
2022-12-09T02:42:32.557Z,-6.222222222222172
2022-12-09T02:43:32.844Z,-6.222222222222172
2022-12-09T02:44:32.554Z,-6.222222222222172
2022-12-09T02:45:32.908Z,-6.111111111111086
2022-12-09T02:46:32.848Z,-6.111111111111086
2022-12-09T02:47:32.635Z,-5.999999999999943
2022-12-09T02:48:32.968Z,-5.999999999999943
2022-12-09T02:49:32.591Z,-5.999999999999943
2022-12-09T02:50:32.727Z,-5.888888888888857
2022-12-09T02:51:32.553Z,-5.888888888888857
2022-12-09T02:52:32.529Z,-5.888888888888857
2022-12-09T02:53:32.530Z,-5.777777777777715
2022-12-09T02:54:32.578Z,-5.777777777777715
2022-12-09T02:55:32.660Z,-5.777777777777715
2022-12-09T02:56:32.545Z,-5.722222222222172
2022-12-09T02:57:32.540Z,-5.722222222222172
2022-12-09T02:58:32.599Z,-5.611111111111086
2022-12-09T02:59:32.809Z,-5.499999999999943
2022-12-09T03:00:32.571Z,-5.499999999999943
2022-12-09T03:01:32.644Z,-5.388888888888857
2022-12-09T03:02:32.706Z,-5.388888888888857
2022-12-09T03:03:32.966Z,-5.277777777777715
2022-12-09T03:04:33.014Z,-5.277777777777715
2022-12-09T03:05:32.551Z,-5.222222222222172
2022-12-09T03:06:32.572Z,-5.222222222222172
2022-12-09T03:07:32.712Z,-5.222222222222172
2022-12-09T03:08:32.639Z,-5.222222222222172
2022-12-09T03:09:33.074Z,-5.222222222222172
2022-12-09T03:10:32.706Z,-5.222222222222172
2022-12-09T03:11:32.800Z,-5.111111111111086
2022-12-09T03:12:32.710Z,-5.111111111111086
2022-12-09T03:13:32.751Z,-5.111111111111086
2022-12-09T03:14:33.009Z,-5.111111111111086
2022-12-09T03:15:32.806Z,-5.111111111111086
2022-12-09T03:16:32.698Z,-5.111111111111086
2022-12-09T03:17:35.876Z,-5.111111111111086
2022-12-09T03:18:32.942Z,-5.111111111111086
2022-12-09T03:19:32.690Z,-5.111111111111086
2022-12-09T03:20:32.541Z,-5.111111111111086
2022-12-09T03:21:32.918Z,-5.111111111111086
2022-12-09T03:22:32.657Z,-5.222222222222172
2022-12-09T03:23:32.758Z,-5.222222222222172
2022-12-09T03:24:32.655Z,-5.222222222222172
2022-12-09T03:25:33.050Z,-5.222222222222172
2022-12-09T03:26:32.715Z,-5.222222222222172
2022-12-09T03:27:32.977Z,-5.222222222222172
2022-12-09T03:28:32.689Z,-5.222222222222172
2022-12-09T03:29:32.973Z,-5.222222222222172
2022-12-09T03:30:32.790Z,-5.222222222222172
2022-12-09T03:31:32.833Z,-5.222222222222172
2022-12-09T03:32:32.721Z,-5.222222222222172
2022-12-09T03:33:32.639Z,-5.222222222222172
2022-12-09T03:34:32.879Z,-5.222222222222172
2022-12-09T03:35:32.549Z,-5.222222222222172
2022-12-09T03:36:32.554Z,-5.277777777777715
2022-12-09T03:37:32.912Z,-5.277777777777715
2022-12-09T03:38:32.634Z,-5.277777777777715
2022-12-09T03:39:32.844Z,-5.222222222222172
2022-12-09T03:40:33.008Z,-5.222222222222172
2022-12-09T03:41:32.732Z,-5.222222222222172
2022-12-09T03:42:32.657Z,-5.222222222222172
2022-12-09T03:43:32.731Z,-5.222222222222172
2022-12-09T03:44:32.503Z,-5.222222222222172
2022-12-09T03:45:32.626Z,-5.222222222222172
2022-12-09T03:46:32.942Z,-5.222222222222172
2022-12-09T03:47:32.711Z,-5.222222222222172
2022-12-09T03:48:32.576Z,-5.222222222222172
2022-12-09T03:49:32.570Z,-5.222222222222172
2022-12-09T03:50:32.691Z,-5.222222222222172
2022-12-09T03:51:32.829Z,-5.222222222222172
2022-12-09T03:52:32.514Z,-5.222222222222172
2022-12-09T03:53:32.855Z,-5.222222222222172
2022-12-09T03:54:32.801Z,-5.222222222222172
2022-12-09T03:55:32.570Z,-5.222222222222172
2022-12-09T03:56:32.851Z,-5.222222222222172
2022-12-09T03:57:32.557Z,-5.222222222222172
2022-12-09T03:58:32.737Z,-5.222222222222172
2022-12-09T03:59:32.898Z,-5.222222222222172
2022-12-09T04:00:32.705Z,-5.222222222222172
2022-12-09T04:01:32.920Z,-5.222222222222172
2022-12-09T04:02:33.074Z,-5.222222222222172
2022-12-09T04:03:32.860Z,-5.222222222222172
2022-12-09T04:04:32.533Z,-5.222222222222172
2022-12-09T04:05:32.615Z,-5.222222222222172
2022-12-09T04:06:32.528Z,-5.222222222222172
2022-12-09T04:07:32.563Z,-5.222222222222172
2022-12-09T04:08:32.996Z,-5.222222222222172
2022-12-09T04:09:32.677Z,-5.222222222222172
2022-12-09T04:10:32.627Z,-5.222222222222172
2022-12-09T04:11:32.664Z,-5.222222222222172
2022-12-09T04:12:32.740Z,-5.222222222222172
2022-12-09T04:13:32.729Z,-5.222222222222172
2022-12-09T04:14:32.523Z,-5.222222222222172
2022-12-09T04:15:32.920Z,-5.222222222222172
2022-12-09T04:16:32.597Z,-5.222222222222172
2022-12-09T04:17:32.952Z,-5.222222222222172
2022-12-09T04:18:32.942Z,-5.222222222222172
2022-12-09T04:19:32.788Z,-5.222222222222172
2022-12-09T04:20:32.757Z,-5.111111111111086
2022-12-09T04:21:32.521Z,-5.111111111111086
2022-12-09T04:22:32.875Z,-5.111111111111086
2022-12-09T04:23:35.582Z,-5.111111111111086
2022-12-09T04:24:32.537Z,-5.111111111111086
2022-12-09T04:25:32.844Z,-5.111111111111086
2022-12-09T04:26:32.946Z,-5.111111111111086
2022-12-09T04:27:32.656Z,-5.111111111111086
2022-12-09T04:28:32.546Z,-5.111111111111086
2022-12-09T04:29:32.670Z,-5.111111111111086
2022-12-09T04:30:32.593Z,-5.111111111111086
2022-12-09T04:31:32.578Z,-5.111111111111086
2022-12-09T04:32:32.910Z,-4.999999999999943
2022-12-09T04:33:32.547Z,-4.999999999999943
2022-12-09T04:34:32.605Z,-4.999999999999943
2022-12-09T04:35:32.596Z,-4.999999999999943
2022-12-09T04:36:32.629Z,-4.999999999999943
2022-12-09T04:37:32.729Z,-4.888888888888857
2022-12-09T04:38:32.761Z,-4.888888888888857
2022-12-09T04:39:48.665Z,-4.888888888888857
2022-12-09T04:40:52.338Z,-4.888888888888857
2022-12-09T04:41:56.524Z,-4.888888888888857
2022-12-09T04:43:00.487Z,-4.888888888888857
2022-12-09T04:44:04.981Z,-4.888888888888857
2022-12-09T04:45:08.388Z,-4.888888888888857
2022-12-09T04:46:12.678Z,-4.888888888888857
2022-12-09T04:47:16.504Z,-4.888888888888857
2022-12-09T04:48:20.485Z,-4.888888888888857
2022-12-09T04:49:24.422Z,-4.888888888888857
2022-12-09T04:50:28.357Z,-4.888888888888857
2022-12-09T04:51:39.080Z,-4.888888888888857
2022-12-09T04:52:32.612Z,-4.888888888888857
2022-12-09T04:53:32.721Z,-4.888888888888857
2022-12-09T04:54:32.556Z,-4.888888888888857
2022-12-09T04:55:32.385Z,-4.888888888888857
2022-12-09T04:56:32.597Z,-4.888888888888857
2022-12-09T04:57:32.628Z,-4.7777777777777715
2022-12-09T04:58:32.559Z,-4.7777777777777715
2022-12-09T04:59:32.464Z,-4.888888888888857
2022-12-09T05:00:32.739Z,-4.888888888888857
2022-12-09T05:01:32.702Z,-4.888888888888857
2022-12-09T05:02:32.676Z,-4.888888888888857
2022-12-09T05:03:32.868Z,-4.888888888888857
2022-12-09T05:04:32.851Z,-4.888888888888857
2022-12-09T05:05:32.771Z,-4.888888888888857
2022-12-09T05:06:32.840Z,-4.999999999999943
2022-12-09T05:07:32.959Z,-4.999999999999943
2022-12-09T05:08:32.741Z,-4.999999999999943
2022-12-09T05:09:33.032Z,-4.999999999999943
2022-12-09T05:10:33.007Z,-4.999999999999943
2022-12-09T05:11:33.036Z,-4.999999999999943
2022-12-09T05:12:32.859Z,-4.999999999999943
2022-12-09T05:13:32.661Z,-4.888888888888857
2022-12-09T05:14:32.874Z,-4.888888888888857
2022-12-09T05:15:32.448Z,-4.888888888888857
2022-12-09T05:16:32.672Z,-4.888888888888857
2022-12-09T05:17:32.616Z,-4.888888888888857
2022-12-09T05:18:32.875Z,-4.888888888888857
2022-12-09T05:19:32.816Z,-4.888888888888857
2022-12-09T05:20:32.738Z,-4.888888888888857
2022-12-09T05:21:32.567Z,-4.999999999999943
2022-12-09T05:22:32.569Z,-4.999999999999943
2022-12-09T05:23:32.905Z,-4.999999999999943
2022-12-09T05:24:32.857Z,-5.111111111111086
2022-12-09T05:25:32.927Z,-5.111111111111086
2022-12-09T05:26:32.853Z,-5.111111111111086
2022-12-09T05:27:32.430Z,-5.111111111111086
2022-12-09T05:28:32.552Z,-5.111111111111086
2022-12-09T05:29:32.584Z,-5.111111111111086
2022-12-09T05:30:32.565Z,-5.111111111111086
2022-12-09T05:31:32.555Z,-5.111111111111086
2022-12-09T05:32:32.847Z,-5.111111111111086
2022-12-09T05:33:32.865Z,-4.999999999999943
2022-12-09T05:34:32.941Z,-5.111111111111086
2022-12-09T05:35:32.852Z,-5.111111111111086
2022-12-09T05:36:32.503Z,-5.111111111111086
2022-12-09T05:37:32.840Z,-5.111111111111086
2022-12-09T05:38:32.856Z,-5.111111111111086
2022-12-09T05:39:32.722Z,-5.111111111111086
2022-12-09T05:40:32.540Z,-5.111111111111086
2022-12-09T05:41:32.600Z,-5.111111111111086
2022-12-09T05:42:37.858Z,-5.111111111111086
2022-12-09T05:43:32.835Z,-5.111111111111086
2022-12-09T05:44:32.797Z,-5.111111111111086
2022-12-09T05:45:32.902Z,-5.111111111111086
2022-12-09T05:46:33.004Z,-5.111111111111086
2022-12-09T05:47:32.754Z,-5.111111111111086
2022-12-09T05:48:32.763Z,-5.111111111111086
2022-12-09T05:49:33.146Z,-5.111111111111086
2022-12-09T05:50:32.968Z,-5.111111111111086
2022-12-09T05:51:32.437Z,-5.111111111111086
2022-12-09T05:52:32.908Z,-5.111111111111086
2022-12-09T05:53:32.808Z,-5.111111111111086
2022-12-09T05:54:32.613Z,-4.999999999999943
2022-12-09T05:55:32.596Z,-4.999999999999943
2022-12-09T05:56:32.706Z,-4.999999999999943
2022-12-09T05:57:32.658Z,-4.999999999999943
2022-12-09T05:58:32.616Z,-5.111111111111086
2022-12-09T05:59:32.800Z,-5.111111111111086
2022-12-09T06:00:32.563Z,-5.111111111111086
2022-12-09T06:01:32.552Z,-4.999999999999943
2022-12-09T06:02:33.038Z,-4.999999999999943
2022-12-09T06:03:32.974Z,-4.999999999999943
2022-12-09T06:04:32.785Z,-4.888888888888857
2022-12-09T06:05:32.760Z,-4.888888888888857
2022-12-09T06:06:33.190Z,-4.888888888888857
2022-12-09T06:07:33.076Z,-4.888888888888857
2022-12-09T06:08:32.600Z,-4.7777777777777715
2022-12-09T06:09:32.992Z,-4.7777777777777715
2022-12-09T06:10:32.940Z,-4.7777777777777715
2022-12-09T06:11:32.699Z,-4.7777777777777715
2022-12-09T06:12:32.744Z,-4.722222222222172
2022-12-09T06:13:32.745Z,-4.722222222222172
2022-12-09T06:14:32.554Z,-4.722222222222172
2022-12-09T06:15:33.642Z,-4.722222222222172
2022-12-09T06:16:32.715Z,-4.722222222222172
2022-12-09T06:17:32.853Z,-4.611111111111086
2022-12-09T06:18:32.965Z,-4.611111111111086
2022-12-09T06:19:32.748Z,-4.611111111111086
2022-12-09T06:20:32.603Z,-4.611111111111086
2022-12-09T06:21:32.976Z,-4.611111111111086
2022-12-09T06:22:32.672Z,-4.499999999999943
2022-12-09T06:23:32.694Z,-4.499999999999943
2022-12-09T06:24:32.584Z,-4.499999999999943
2022-12-09T06:25:32.679Z,-4.499999999999943
2022-12-09T06:26:32.567Z,-4.499999999999943
2022-12-09T06:27:32.580Z,-4.499999999999943
2022-12-09T06:28:32.673Z,-4.499999999999943
2022-12-09T06:29:32.626Z,-4.499999999999943
2022-12-09T06:30:32.607Z,-4.499999999999943
2022-12-09T06:31:32.628Z,-4.499999999999943
2022-12-09T06:32:32.912Z,-4.499999999999943
2022-12-09T06:33:54.299Z,-4.499999999999943
2022-12-09T06:34:32.810Z,-4.388888888888857
2022-12-09T06:35:32.507Z,-4.388888888888857
2022-12-09T06:36:32.753Z,-4.388888888888857
2022-12-09T06:37:32.661Z,-4.388888888888857
2022-12-09T06:38:32.943Z,-4.388888888888857
2022-12-09T06:39:32.579Z,-4.388888888888857
2022-12-09T06:40:32.935Z,-4.388888888888857
2022-12-09T06:41:32.729Z,-4.388888888888857
2022-12-09T06:42:32.597Z,-4.388888888888857
2022-12-09T06:43:32.856Z,-4.388888888888857
2022-12-09T06:44:32.568Z,-4.388888888888857
2022-12-09T06:45:32.656Z,-4.388888888888857
2022-12-09T06:46:32.911Z,-4.388888888888857
2022-12-09T06:47:32.787Z,-4.388888888888857
2022-12-09T06:48:33.044Z,-4.388888888888857
2022-12-09T06:49:33.012Z,-4.388888888888857
2022-12-09T06:50:32.805Z,-4.277777777777715
2022-12-09T06:51:32.636Z,-4.277777777777715
2022-12-09T06:52:32.929Z,-4.277777777777715
2022-12-09T06:53:33.073Z,-4.277777777777715
2022-12-09T06:54:32.840Z,-4.277777777777715
2022-12-09T06:55:32.472Z,-4.277777777777715
2022-12-09T06:56:32.778Z,-4.277777777777715
2022-12-09T06:57:32.885Z,-4.277777777777715
2022-12-09T06:58:32.761Z,-4.277777777777715
2022-12-09T06:59:32.890Z,-4.277777777777715
2022-12-09T07:00:32.756Z,-4.277777777777715
2022-12-09T07:01:33.016Z,-4.222222222222172
2022-12-09T07:02:35.698Z,-4.222222222222172
2022-12-09T07:03:32.803Z,-4.222222222222172
2022-12-09T07:04:33.241Z,-4.222222222222172
2022-12-09T07:05:32.678Z,-4.222222222222172
2022-12-09T07:06:32.934Z,-4.222222222222172
2022-12-09T07:07:32.558Z,-4.222222222222172
2022-12-09T07:08:32.909Z,-4.222222222222172
2022-12-09T07:09:32.648Z,-4.222222222222172
2022-12-09T07:10:32.800Z,-4.222222222222172
2022-12-09T07:11:32.828Z,-4.222222222222172
2022-12-09T07:12:32.840Z,-4.222222222222172
2022-12-09T07:13:32.599Z,-4.222222222222172
2022-12-09T07:14:32.637Z,-4.111111111111029
2022-12-09T07:15:32.762Z,-4.111111111111029
2022-12-09T07:16:32.825Z,-4.111111111111029
2022-12-09T07:17:32.618Z,-4.111111111111029
2022-12-09T07:18:32.938Z,-4.111111111111029
2022-12-09T07:19:32.957Z,-3.999999999999943
2022-12-09T07:20:32.749Z,-3.999999999999943
2022-12-09T07:21:32.643Z,-3.999999999999943
2022-12-09T07:22:32.553Z,-3.999999999999943
2022-12-09T07:23:32.488Z,-3.999999999999943
2022-12-09T07:24:32.839Z,-3.999999999999943
2022-12-09T07:25:33.184Z,-3.8888888888888573
2022-12-09T07:26:32.726Z,-3.8888888888888573
2022-12-09T07:27:32.725Z,-3.8888888888888573
2022-12-09T07:28:32.783Z,-3.8888888888888573
2022-12-09T07:29:32.530Z,-3.8888888888888573
2022-12-09T07:30:32.709Z,-3.8888888888888573
2022-12-09T07:31:32.673Z,-3.8888888888888573
2022-12-09T07:32:33.083Z,-3.8888888888888573
2022-12-09T07:33:32.821Z,-3.8888888888888573
2022-12-09T07:34:32.658Z,-3.8888888888888573
2022-12-09T07:35:32.559Z,-3.8888888888888573
2022-12-09T07:36:32.981Z,-3.8888888888888573
2022-12-09T07:37:32.993Z,-3.8888888888888573
2022-12-09T07:38:45.109Z,-3.8888888888888573
2022-12-09T07:39:48.504Z,-3.8888888888888573
2022-12-09T07:40:52.854Z,-3.8888888888888573
2022-12-09T07:41:57.014Z,-3.7777777777777146
2022-12-09T07:43:00.786Z,-3.7777777777777146
2022-12-09T07:44:04.873Z,-3.7777777777777146
2022-12-09T07:45:09.131Z,-3.7777777777777146
2022-12-09T07:46:12.850Z,-3.7777777777777146
2022-12-09T07:47:16.537Z,-3.7777777777777146
2022-12-09T07:48:20.898Z,-3.7222222222221717
2022-12-09T07:49:24.944Z,-3.7222222222221717
2022-12-09T07:50:29.115Z,-3.7222222222221717
2022-12-09T07:51:32.810Z,-3.7222222222221717
2022-12-09T07:52:32.564Z,-3.7222222222221717
2022-12-09T07:53:32.797Z,-3.7222222222221717
2022-12-09T07:54:33.185Z,-3.7222222222221717
2022-12-09T07:55:33.122Z,-3.7222222222221717
2022-12-09T07:56:32.940Z,-3.611111111111086
2022-12-09T07:57:32.960Z,-3.611111111111086
2022-12-09T07:58:32.835Z,-3.611111111111086
2022-12-09T07:59:33.006Z,-3.611111111111086
2022-12-09T08:00:32.803Z,-3.611111111111086
2022-12-09T08:01:33.086Z,-3.611111111111086
2022-12-09T08:02:32.541Z,-3.611111111111086
2022-12-09T08:03:32.799Z,-3.611111111111086
2022-12-09T08:04:33.545Z,-3.499999999999943
2022-12-09T08:05:33.001Z,-3.499999999999943
2022-12-09T08:06:33.209Z,-3.499999999999943
2022-12-09T08:07:34.732Z,-3.499999999999943
2022-12-09T08:08:33.027Z,-3.499999999999943
2022-12-09T08:09:33.123Z,-3.499999999999943
2022-12-09T08:10:33.215Z,-3.499999999999943
2022-12-09T08:11:33.134Z,-3.499999999999943
2022-12-09T08:12:33.173Z,-3.499999999999943
2022-12-09T08:13:32.907Z,-3.3888888888888573
2022-12-09T08:14:32.969Z,-3.3888888888888573
2022-12-09T08:15:32.826Z,-3.3888888888888573
2022-12-09T08:16:32.947Z,-3.3888888888888573
2022-12-09T08:17:33.380Z,-3.3888888888888573
2022-12-09T08:18:32.650Z,-3.3888888888888573
2022-12-09T08:19:32.926Z,-3.3888888888888573
2022-12-09T08:20:33.431Z,-3.3888888888888573
2022-12-09T08:21:32.850Z,-3.3888888888888573
2022-12-09T08:22:33.058Z,-3.3888888888888573
2022-12-09T08:23:32.909Z,-3.3888888888888573
2022-12-09T08:24:32.850Z,-3.2777777777777146
2022-12-09T08:25:33.185Z,-3.2777777777777146
2022-12-09T08:26:33.270Z,-3.2777777777777146
2022-12-09T08:27:32.581Z,-3.2777777777777146
2022-12-09T08:28:32.562Z,-3.2777777777777146
2022-12-09T08:29:32.956Z,-3.2777777777777146
2022-12-09T08:30:32.756Z,-3.2777777777777146
2022-12-09T08:31:35.692Z,-3.2777777777777146
2022-12-09T08:32:32.775Z,-3.2777777777777146
2022-12-09T08:33:32.830Z,-3.2777777777777146
2022-12-09T08:34:32.664Z,-3.2222222222221717
2022-12-09T08:35:32.568Z,-3.2222222222221717
2022-12-09T08:36:32.524Z,-3.2222222222221717
2022-12-09T08:37:32.755Z,-3.2222222222221717
2022-12-09T08:38:32.753Z,-3.2222222222221717
2022-12-09T08:39:32.544Z,-3.2222222222221717
2022-12-09T08:40:33.036Z,-3.2222222222221717
2022-12-09T08:41:32.755Z,-3.2222222222221717
2022-12-09T08:42:32.888Z,-3.111111111111086
2022-12-09T08:43:32.584Z,-3.111111111111086
2022-12-09T08:44:32.515Z,-3.111111111111086
2022-12-09T08:45:32.690Z,-3.111111111111086
2022-12-09T08:46:33.031Z,-3.111111111111086
2022-12-09T08:47:32.978Z,-3.111111111111086
2022-12-09T08:48:32.931Z,-3.111111111111086
2022-12-09T08:49:33.043Z,-2.999999999999943
2022-12-09T08:50:32.988Z,-2.999999999999943
2022-12-09T08:51:32.553Z,-2.999999999999943
2022-12-09T08:52:37.149Z,-2.999999999999943
2022-12-09T08:53:32.954Z,-2.999999999999943
2022-12-09T08:54:32.717Z,-2.999999999999943
2022-12-09T08:55:32.667Z,-2.8888888888888573
2022-12-09T08:56:32.794Z,-2.8888888888888573
2022-12-09T08:57:32.563Z,-2.8888888888888573
2022-12-09T08:58:32.850Z,-2.8888888888888573
2022-12-09T08:59:32.473Z,-2.8888888888888573
2022-12-09T09:00:32.569Z,-2.8888888888888573
2022-12-09T09:01:33.406Z,-2.7777777777777146
2022-12-09T09:02:32.805Z,-2.7777777777777146
2022-12-09T09:03:32.636Z,-2.7777777777777146
2022-12-09T09:04:32.991Z,-2.7777777777777146